sensor_id;sensor_type;location;lat;lon;timestamp;P1;durP1;ratioP1;P2;durP2;ratioP2
19971;SDS011;10147;16.402;102.848;2023-05-10T00:00:18;29.15;;;21.85;;
19971;SDS011;10147;16.402;102.848;2023-05-10T00:02:49;26.83;;;21.08;;
19971;SDS011;10147;16.402;102.848;2023-05-10T00:05:19;27.38;;;18.13;;
19971;SDS011;10147;16.402;102.848;2023-05-10T00:07:49;24.17;;;19.10;;
19971;SDS011;10147;16.402;102.848;2023-05-10T00:10:19;18.08;;;15.60;;
19971;SDS011;10147;16.402;102.848;2023-05-10T00:12:49;19.00;;;14.30;;
19971;SDS011;10147;16.402;102.848;2023-05-10T00:15:18;17.27;;;13.85;;
19971;SDS011;10147;16.402;102.848;2023-05-10T00:17:48;19.45;;;14.40;;
19971;SDS011;10147;16.402;102.848;2023-05-10T00:20:18;16.13;;;14.43;;
19971;SDS011;10147;16.402;102.848;2023-05-10T00:22:48;18.42;;;14.57;;
19971;SDS011;10147;16.402;102.848;2023-05-10T00:25:18;19.42;;;15.23;;
19971;SDS011;10147;16.402;102.848;2023-05-10T00:27:50;18.92;;;15.75;;
19971;SDS011;10147;16.402;102.848;2023-05-10T00:30:19;20.00;;;15.07;;
19971;SDS011;10147;16.402;102.848;2023-05-10T00:32:49;21.25;;;18.75;;
19971;SDS011;10147;16.402;102.848;2023-05-10T00:35:20;15.82;;;13.32;;
19971;SDS011;10147;16.402;102.848;2023-05-10T00:37:50;17.67;;;13.45;;
19971;SDS011;10147;16.402;102.848;2023-05-10T00:40:20;16.27;;;14.57;;
19971;SDS011;10147;16.402;102.848;2023-05-10T00:42:54;19.27;;;16.15;;
19971;SDS011;10147;16.402;102.848;2023-05-10T00:45:24;19.70;;;16.83;;
19971;SDS011;10147;16.402;102.848;2023-05-10T00:47:56;13.70;;;12.30;;
19971;SDS011;10147;16.402;102.848;2023-05-10T00:50:26;16.90;;;14.05;;
19971;SDS011;10147;16.402;102.848;2023-05-10T00:52:57;20.17;;;15.57;;
19971;SDS011;10147;16.402;102.848;2023-05-10T00:55:29;18.52;;;14.38;;
19971;SDS011;10147;16.402;102.848;2023-05-10T00:57:59;15.38;;;12.05;;
19971;SDS011;10147;16.402;102.848;2023-05-10T01:00:30;15.90;;;12.77;;
19971;SDS011;10147;16.402;102.848;2023-05-10T01:03:02;18.58;;;13.25;;
19971;SDS011;10147;16.402;102.848;2023-05-10T01:05:32;15.15;;;12.00;;
19971;SDS011;10147;16.402;102.848;2023-05-10T01:08:02;14.15;;;12.52;;
19971;SDS011;10147;16.402;102.848;2023-05-10T01:10:32;15.55;;;13.23;;
19971;SDS011;10147;16.402;102.848;2023-05-10T01:13:03;15.35;;;12.40;;
19971;SDS011;10147;16.402;102.848;2023-05-10T01:15:33;14.52;;;12.10;;
19971;SDS011;10147;16.402;102.848;2023-05-10T01:18:03;16.00;;;12.60;;
19971;SDS011;10147;16.402;102.848;2023-05-10T01:20:35;15.55;;;12.73;;
19971;SDS011;10147;16.402;102.848;2023-05-10T01:23:30;16.35;;;12.88;;
19971;SDS011;10147;16.402;102.848;2023-05-10T01:26:25;16.95;;;13.63;;
19971;SDS011;10147;16.402;102.848;2023-05-10T01:38:54;15.13;;;13.32;;
19971;SDS011;10147;16.402;102.848;2023-05-10T01:41:49;15.30;;;11.48;;
19971;SDS011;10147;16.402;102.848;2023-05-10T01:47:41;17.55;;;13.63;;
19971;SDS011;10147;16.402;102.848;2023-05-10T01:50:32;18.02;;;13.43;;
19971;SDS011;10147;16.402;102.848;2023-05-10T01:53:05;15.20;;;13.25;;
19971;SDS011;10147;16.402;102.848;2023-05-10T01:55:45;15.55;;;13.38;;
19971;SDS011;10147;16.402;102.848;2023-05-10T01:58:32;15.40;;;13.32;;
19971;SDS011;10147;16.402;102.848;2023-05-10T02:01:05;14.57;;;11.95;;
19971;SDS011;10147;16.402;102.848;2023-05-10T02:03:36;13.73;;;11.88;;
19971;SDS011;10147;16.402;102.848;2023-05-10T02:06:09;14.50;;;13.15;;
19971;SDS011;10147;16.402;102.848;2023-05-10T02:08:41;14.00;;;11.65;;
19971;SDS011;10147;16.402;102.848;2023-05-10T02:11:15;13.18;;;11.85;;
19971;SDS011;10147;16.402;102.848;2023-05-10T02:13:48;14.80;;;12.00;;
19971;SDS011;10147;16.402;102.848;2023-05-10T02:16:25;14.13;;;12.48;;
19971;SDS011;10147;16.402;102.848;2023-05-10T02:18:56;12.02;;;10.82;;
19971;SDS011;10147;16.402;102.848;2023-05-10T02:21:28;12.27;;;10.75;;
19971;SDS011;10147;16.402;102.848;2023-05-10T02:24:00;11.25;;;10.20;;
19971;SDS011;10147;16.402;102.848;2023-05-10T02:26:32;11.63;;;10.52;;
19971;SDS011;10147;16.402;102.848;2023-05-10T02:29:05;13.05;;;11.85;;
19971;SDS011;10147;16.402;102.848;2023-05-10T02:31:36;12.05;;;10.75;;
19971;SDS011;10147;16.402;102.848;2023-05-10T02:34:07;12.52;;;11.32;;
19971;SDS011;10147;16.402;102.848;2023-05-10T02:36:39;11.80;;;10.60;;
19971;SDS011;10147;16.402;102.848;2023-05-10T02:39:11;12.15;;;11.05;;
19971;SDS011;10147;16.402;102.848;2023-05-10T02:41:43;13.35;;;11.20;;
19971;SDS011;10147;16.402;102.848;2023-05-10T02:44:17;12.48;;;11.18;;
19971;SDS011;10147;16.402;102.848;2023-05-10T02:46:48;13.07;;;11.73;;
19971;SDS011;10147;16.402;102.848;2023-05-10T02:49:18;11.82;;;10.73;;
19971;SDS011;10147;16.402;102.848;2023-05-10T02:51:55;12.82;;;11.63;;
19971;SDS011;10147;16.402;102.848;2023-05-10T02:54:31;12.48;;;11.27;;
19971;SDS011;10147;16.402;102.848;2023-05-10T02:57:06;12.27;;;11.07;;
19971;SDS011;10147;16.402;102.848;2023-05-10T02:59:38;12.68;;;11.48;;
19971;SDS011;10147;16.402;102.848;2023-05-10T03:02:08;14.02;;;12.73;;
19971;SDS011;10147;16.402;102.848;2023-05-10T03:04:39;12.70;;;11.50;;
19971;SDS011;10147;16.402;102.848;2023-05-10T03:07:09;11.73;;;10.63;;
19971;SDS011;10147;16.402;102.848;2023-05-10T03:09:39;14.57;;;13.18;;
19971;SDS011;10147;16.402;102.848;2023-05-10T03:18:33;12.65;;;11.45;;
19971;SDS011;10147;16.402;102.848;2023-05-10T03:21:13;12.90;;;11.60;;
19971;SDS011;10147;16.402;102.848;2023-05-10T03:23:51;13.25;;;11.93;;
19971;SDS011;10147;16.402;102.848;2023-05-10T03:26:36;14.13;;;11.68;;
19971;SDS011;10147;16.402;102.848;2023-05-10T03:29:12;12.40;;;11.10;;
19971;SDS011;10147;16.402;102.848;2023-05-10T03:31:43;14.95;;;13.55;;
19971;SDS011;10147;16.402;102.848;2023-05-10T03:34:14;13.20;;;12.00;;
19971;SDS011;10147;16.402;102.848;2023-05-10T03:36:45;14.68;;;13.18;;
19971;SDS011;10147;16.402;102.848;2023-05-10T03:39:15;13.15;;;11.82;;
19971;SDS011;10147;16.402;102.848;2023-05-10T03:41:51;13.65;;;12.35;;
19971;SDS011;10147;16.402;102.848;2023-05-10T03:44:22;14.55;;;13.02;;
19971;SDS011;10147;16.402;102.848;2023-05-10T03:46:52;14.32;;;13.02;;
19971;SDS011;10147;16.402;102.848;2023-05-10T03:49:22;13.85;;;12.60;;
19971;SDS011;10147;16.402;102.848;2023-05-10T03:51:52;13.30;;;12.10;;
19971;SDS011;10147;16.402;102.848;2023-05-10T03:54:23;14.50;;;13.10;;
19971;SDS011;10147;16.402;102.848;2023-05-10T03:56:53;14.30;;;12.82;;
19971;SDS011;10147;16.402;102.848;2023-05-10T03:59:23;14.02;;;12.63;;
19971;SDS011;10147;16.402;102.848;2023-05-10T04:01:53;14.15;;;12.68;;
19971;SDS011;10147;16.402;102.848;2023-05-10T04:04:24;15.10;;;13.57;;
19971;SDS011;10147;16.402;102.848;2023-05-10T04:06:54;14.15;;;12.85;;
19971;SDS011;10147;16.402;102.848;2023-05-10T04:09:24;15.07;;;13.60;;
19971;SDS011;10147;16.402;102.848;2023-05-10T04:11:54;15.88;;;14.27;;
19971;SDS011;10147;16.402;102.848;2023-05-10T04:14:25;15.65;;;14.25;;
19971;SDS011;10147;16.402;102.848;2023-05-10T04:16:54;16.33;;;14.85;;
19971;SDS011;10147;16.402;102.848;2023-05-10T04:19:28;15.65;;;14.25;;
19971;SDS011;10147;16.402;102.848;2023-05-10T04:21:59;15.57;;;14.18;;
19971;SDS011;10147;16.402;102.848;2023-05-10T04:24:31;16.30;;;14.65;;
19971;SDS011;10147;16.402;102.848;2023-05-10T04:27:00;17.00;;;15.40;;
19971;SDS011;10147;16.402;102.848;2023-05-10T04:29:30;16.08;;;14.52;;
19971;SDS011;10147;16.402;102.848;2023-05-10T04:32:00;16.90;;;15.30;;
19971;SDS011;10147;16.402;102.848;2023-05-10T04:34:30;16.27;;;14.73;;
19971;SDS011;10147;16.402;102.848;2023-05-10T04:37:03;16.15;;;14.75;;
19971;SDS011;10147;16.402;102.848;2023-05-10T04:39:33;17.30;;;15.50;;
19971;SDS011;10147;16.402;102.848;2023-05-10T04:42:05;17.15;;;15.48;;
19971;SDS011;10147;16.402;102.848;2023-05-10T04:44:36;17.77;;;16.02;;
19971;SDS011;10147;16.402;102.848;2023-05-10T04:47:06;16.58;;;14.98;;
19971;SDS011;10147;16.402;102.848;2023-05-10T04:49:38;16.98;;;15.25;;
19971;SDS011;10147;16.402;102.848;2023-05-10T04:52:08;16.92;;;15.23;;
19971;SDS011;10147;16.402;102.848;2023-05-10T04:54:38;17.33;;;15.73;;
19971;SDS011;10147;16.402;102.848;2023-05-10T04:57:08;17.58;;;15.77;;
19971;SDS011;10147;16.402;102.848;2023-05-10T04:59:38;19.75;;;14.80;;
19971;SDS011;10147;16.402;102.848;2023-05-10T05:02:07;16.83;;;15.07;;
19971;SDS011;10147;16.402;102.848;2023-05-10T05:04:37;16.98;;;15.18;;
19971;SDS011;10147;16.402;102.848;2023-05-10T05:07:07;16.20;;;14.70;;
19971;SDS011;10147;16.402;102.848;2023-05-10T05:09:37;17.05;;;15.45;;
19971;SDS011;10147;16.402;102.848;2023-05-10T05:12:07;15.90;;;14.43;;
19971;SDS011;10147;16.402;102.848;2023-05-10T05:14:42;16.70;;;15.13;;
19971;SDS011;10147;16.402;102.848;2023-05-10T05:17:12;16.75;;;15.25;;
19971;SDS011;10147;16.402;102.848;2023-05-10T05:19:42;17.25;;;15.63;;
19971;SDS011;10147;16.402;102.848;2023-05-10T05:22:12;17.75;;;16.13;;
19971;SDS011;10147;16.402;102.848;2023-05-10T05:24:43;16.45;;;14.75;;
19971;SDS011;10147;16.402;102.848;2023-05-10T05:27:13;16.33;;;14.68;;
19971;SDS011;10147;16.402;102.848;2023-05-10T05:29:43;17.42;;;15.80;;
19971;SDS011;10147;16.402;102.848;2023-05-10T05:32:12;17.65;;;15.85;;
19971;SDS011;10147;16.402;102.848;2023-05-10T05:34:46;17.60;;;16.00;;
19971;SDS011;10147;16.402;102.848;2023-05-10T05:37:17;17.02;;;15.40;;
19971;SDS011;10147;16.402;102.848;2023-05-10T05:39:48;17.10;;;15.05;;
19971;SDS011;10147;16.402;102.848;2023-05-10T05:42:18;16.77;;;15.27;;
19971;SDS011;10147;16.402;102.848;2023-05-10T05:44:49;17.40;;;15.70;;
19971;SDS011;10147;16.402;102.848;2023-05-10T05:47:19;17.25;;;15.52;;
19971;SDS011;10147;16.402;102.848;2023-05-10T05:49:49;16.88;;;15.38;;
19971;SDS011;10147;16.402;102.848;2023-05-10T05:52:19;17.05;;;15.25;;
19971;SDS011;10147;16.402;102.848;2023-05-10T05:54:49;16.90;;;15.40;;
19971;SDS011;10147;16.402;102.848;2023-05-10T05:57:19;28.35;;;25.88;;
19971;SDS011;10147;16.402;102.848;2023-05-10T05:59:50;30.67;;;28.17;;
19971;SDS011;10147;16.402;102.848;2023-05-10T06:02:19;16.58;;;15.00;;
19971;SDS011;10147;16.402;102.848;2023-05-10T06:04:50;31.35;;;28.75;;
19971;SDS011;10147;16.402;102.848;2023-05-10T06:07:21;17.77;;;16.17;;
19971;SDS011;10147;16.402;102.848;2023-05-10T06:09:51;17.77;;;15.93;;
19971;SDS011;10147;16.402;102.848;2023-05-10T06:12:21;16.77;;;14.98;;
19971;SDS011;10147;16.402;102.848;2023-05-10T06:14:51;18.08;;;16.23;;
19971;SDS011;10147;16.402;102.848;2023-05-10T06:17:21;20.10;;;18.25;;
19971;SDS011;10147;16.402;102.848;2023-05-10T06:19:51;18.08;;;16.38;;
19971;SDS011;10147;16.402;102.848;2023-05-10T06:22:20;18.17;;;16.30;;
19971;SDS011;10147;16.402;102.848;2023-05-10T06:24:51;18.13;;;16.45;;
19971;SDS011;10147;16.402;102.848;2023-05-10T06:27:20;17.75;;;15.90;;
19971;SDS011;10147;16.402;102.848;2023-05-10T06:29:50;19.17;;;17.38;;
19971;SDS011;10147;16.402;102.848;2023-05-10T06:32:35;19.15;;;17.15;;
19971;SDS011;10147;16.402;102.848;2023-05-10T06:35:05;16.98;;;15.38;;
19971;SDS011;10147;16.402;102.848;2023-05-10T06:37:36;18.13;;;16.42;;
19971;SDS011;10147;16.402;102.848;2023-05-10T06:40:06;20.05;;;18.00;;
19971;SDS011;10147;16.402;102.848;2023-05-10T06:42:36;19.92;;;17.92;;
19971;SDS011;10147;16.402;102.848;2023-05-10T06:45:06;19.23;;;17.38;;
19971;SDS011;10147;16.402;102.848;2023-05-10T06:47:37;19.70;;;17.85;;
19971;SDS011;10147;16.402;102.848;2023-05-10T06:50:08;40.25;;;37.17;;
19971;SDS011;10147;16.402;102.848;2023-05-10T06:52:38;20.05;;;18.13;;
19971;SDS011;10147;16.402;102.848;2023-05-10T06:55:08;18.45;;;16.77;;
19971;SDS011;10147;16.402;102.848;2023-05-10T06:57:39;19.02;;;17.40;;
19971;SDS011;10147;16.402;102.848;2023-05-10T07:00:09;18.98;;;17.17;;
19971;SDS011;10147;16.402;102.848;2023-05-10T07:02:39;18.92;;;17.10;;
19971;SDS011;10147;16.402;102.848;2023-05-10T07:05:09;19.67;;;17.85;;
19971;SDS011;10147;16.402;102.848;2023-05-10T07:07:40;19.08;;;17.20;;
19971;SDS011;10147;16.402;102.848;2023-05-10T07:10:10;19.63;;;17.83;;
19971;SDS011;10147;16.402;102.848;2023-05-10T07:12:40;20.50;;;18.58;;
19971;SDS011;10147;16.402;102.848;2023-05-10T07:15:10;18.08;;;16.38;;
19971;SDS011;10147;16.402;102.848;2023-05-10T07:17:41;19.08;;;17.05;;
19971;SDS011;10147;16.402;102.848;2023-05-10T07:20:12;19.50;;;17.60;;
19971;SDS011;10147;16.402;102.848;2023-05-10T07:22:42;19.92;;;17.98;;
19971;SDS011;10147;16.402;102.848;2023-05-10T07:25:12;19.38;;;17.58;;
19971;SDS011;10147;16.402;102.848;2023-05-10T07:27:42;19.10;;;17.08;;
19971;SDS011;10147;16.402;102.848;2023-05-10T07:30:12;20.15;;;17.92;;
19971;SDS011;10147;16.402;102.848;2023-05-10T07:32:42;18.10;;;16.27;;
19971;SDS011;10147;16.402;102.848;2023-05-10T07:35:12;18.25;;;16.65;;
19971;SDS011;10147;16.402;102.848;2023-05-10T07:37:43;20.13;;;18.17;;
19971;SDS011;10147;16.402;102.848;2023-05-10T07:40:12;18.77;;;17.08;;
19971;SDS011;10147;16.402;102.848;2023-05-10T07:42:42;18.55;;;16.60;;
19971;SDS011;10147;16.402;102.848;2023-05-10T07:45:12;19.30;;;17.35;;
19971;SDS011;10147;16.402;102.848;2023-05-10T07:47:43;19.02;;;17.33;;
19971;SDS011;10147;16.402;102.848;2023-05-10T07:50:13;19.83;;;17.73;;
19971;SDS011;10147;16.402;102.848;2023-05-10T07:52:43;19.98;;;16.88;;
19971;SDS011;10147;16.402;102.848;2023-05-10T07:55:12;19.67;;;16.52;;
19971;SDS011;10147;16.402;102.848;2023-05-10T07:57:43;19.13;;;17.23;;
19971;SDS011;10147;16.402;102.848;2023-05-10T08:00:12;19.75;;;17.92;;
19971;SDS011;10147;16.402;102.848;2023-05-10T08:02:45;18.38;;;16.33;;
19971;SDS011;10147;16.402;102.848;2023-05-10T08:05:16;17.98;;;16.27;;
19971;SDS011;10147;16.402;102.848;2023-05-10T08:07:46;18.38;;;16.58;;
19971;SDS011;10147;16.402;102.848;2023-05-10T08:10:16;17.50;;;15.90;;
19971;SDS011;10147;16.402;102.848;2023-05-10T08:12:46;17.92;;;15.88;;
19971;SDS011;10147;16.402;102.848;2023-05-10T08:15:16;18.15;;;16.35;;
19971;SDS011;10147;16.402;102.848;2023-05-10T08:17:46;17.60;;;15.80;;
19971;SDS011;10147;16.402;102.848;2023-05-10T08:20:19;18.95;;;16.30;;
19971;SDS011;10147;16.402;102.848;2023-05-10T08:22:49;18.08;;;16.27;;
19971;SDS011;10147;16.402;102.848;2023-05-10T08:25:19;17.55;;;15.90;;
19971;SDS011;10147;16.402;102.848;2023-05-10T08:27:48;17.67;;;16.08;;
19971;SDS011;10147;16.402;102.848;2023-05-10T08:30:21;23.33;;;17.30;;
19971;SDS011;10147;16.402;102.848;2023-05-10T08:32:51;17.73;;;16.00;;
19971;SDS011;10147;16.402;102.848;2023-05-10T08:35:22;17.95;;;16.15;;
19971;SDS011;10147;16.402;102.848;2023-05-10T08:37:52;18.08;;;16.27;;
19971;SDS011;10147;16.402;102.848;2023-05-10T08:40:22;18.63;;;16.80;;
19971;SDS011;10147;16.402;102.848;2023-05-10T08:45:45;22.80;;;20.65;;
19971;SDS011;10147;16.402;102.848;2023-05-10T08:48:15;17.80;;;15.82;;
19971;SDS011;10147;16.402;102.848;2023-05-10T08:50:46;20.17;;;18.27;;
19971;SDS011;10147;16.402;102.848;2023-05-10T08:53:17;28.88;;;17.83;;
19971;SDS011;10147;16.402;102.848;2023-05-10T08:55:49;20.00;;;18.00;;
19971;SDS011;10147;16.402;102.848;2023-05-10T08:58:20;20.08;;;18.05;;
19971;SDS011;10147;16.402;102.848;2023-05-10T09:00:50;20.75;;;18.40;;
19971;SDS011;10147;16.402;102.848;2023-05-10T09:03:20;20.00;;;18.20;;
19971;SDS011;10147;16.402;102.848;2023-05-10T09:05:50;19.98;;;17.65;;
19971;SDS011;10147;16.402;102.848;2023-05-10T09:08:22;19.58;;;17.58;;
19971;SDS011;10147;16.402;102.848;2023-05-10T09:10:56;19.45;;;17.52;;
19971;SDS011;10147;16.402;102.848;2023-05-10T09:13:26;18.40;;;16.80;;
19971;SDS011;10147;16.402;102.848;2023-05-10T09:15:57;18.50;;;16.90;;
19971;SDS011;10147;16.402;102.848;2023-05-10T09:18:46;20.08;;;18.17;;
19971;SDS011;10147;16.402;102.848;2023-05-10T09:21:16;19.27;;;17.50;;
19971;SDS011;10147;16.402;102.848;2023-05-10T09:23:46;19.30;;;17.45;;
19971;SDS011;10147;16.402;102.848;2023-05-10T09:26:21;19.00;;;17.13;;
19971;SDS011;10147;16.402;102.848;2023-05-10T09:28:56;18.95;;;17.15;;
19971;SDS011;10147;16.402;102.848;2023-05-10T09:34:29;18.90;;;17.00;;
19971;SDS011;10147;16.402;102.848;2023-05-10T09:37:02;19.42;;;17.63;;
19971;SDS011;10147;16.402;102.848;2023-05-10T09:39:37;20.45;;;18.55;;
19971;SDS011;10147;16.402;102.848;2023-05-10T09:42:08;19.95;;;18.02;;
19971;SDS011;10147;16.402;102.848;2023-05-10T09:44:39;26.63;;;24.23;;
19971;SDS011;10147;16.402;102.848;2023-05-10T09:47:11;20.05;;;18.17;;
19971;SDS011;10147;16.402;102.848;2023-05-10T09:49:50;20.52;;;18.63;;
19971;SDS011;10147;16.402;102.848;2023-05-10T09:52:22;20.17;;;18.25;;
19971;SDS011;10147;16.402;102.848;2023-05-10T09:54:54;20.42;;;18.63;;
19971;SDS011;10147;16.402;102.848;2023-05-10T09:57:25;21.20;;;19.20;;
19971;SDS011;10147;16.402;102.848;2023-05-10T09:59:54;21.23;;;19.08;;
19971;SDS011;10147;16.402;102.848;2023-05-10T10:02:28;22.65;;;18.15;;
19971;SDS011;10147;16.402;102.848;2023-05-10T10:04:59;21.08;;;18.98;;
19971;SDS011;10147;16.402;102.848;2023-05-10T10:07:31;21.60;;;19.60;;
19971;SDS011;10147;16.402;102.848;2023-05-10T10:10:03;21.00;;;19.08;;
19971;SDS011;10147;16.402;102.848;2023-05-10T10:12:33;25.10;;;20.02;;
19971;SDS011;10147;16.402;102.848;2023-05-10T10:15:04;22.55;;;20.45;;
19971;SDS011;10147;16.402;102.848;2023-05-10T10:17:40;22.85;;;20.75;;
19971;SDS011;10147;16.402;102.848;2023-05-10T10:20:12;22.65;;;20.55;;
19971;SDS011;10147;16.402;102.848;2023-05-10T10:22:42;24.30;;;21.23;;
19971;SDS011;10147;16.402;102.848;2023-05-10T10:25:14;24.00;;;21.73;;
19971;SDS011;10147;16.402;102.848;2023-05-10T10:27:58;22.85;;;20.75;;
19971;SDS011;10147;16.402;102.848;2023-05-10T10:30:52;22.17;;;19.55;;
19971;SDS011;10147;16.402;102.848;2023-05-10T10:36:39;23.10;;;20.17;;
19971;SDS011;10147;16.402;102.848;2023-05-10T10:39:14;20.77;;;18.70;;
19971;SDS011;10147;16.402;102.848;2023-05-10T10:41:54;19.30;;;17.02;;
19971;SDS011;10147;16.402;102.848;2023-05-10T10:44:25;19.48;;;17.48;;
19971;SDS011;10147;16.402;102.848;2023-05-10T10:50:04;36.50;;;33.42;;
19971;SDS011;10147;16.402;102.848;2023-05-10T10:52:37;19.40;;;17.58;;
19971;SDS011;10147;16.402;102.848;2023-05-10T10:55:15;17.40;;;14.30;;
19971;SDS011;10147;16.402;102.848;2023-05-10T10:57:54;15.25;;;13.68;;
19971;SDS011;10147;16.402;102.848;2023-05-10T11:00:34;16.13;;;14.43;;
19971;SDS011;10147;16.402;102.848;2023-05-10T11:03:06;17.92;;;14.75;;
19971;SDS011;10147;16.402;102.848;2023-05-10T11:05:51;15.90;;;14.27;;
19971;SDS011;10147;16.402;102.848;2023-05-10T11:08:34;15.73;;;14.00;;
19971;SDS011;10147;16.402;102.848;2023-05-10T11:11:14;16.73;;;14.93;;
19971;SDS011;10147;16.402;102.848;2023-05-10T11:13:45;15.18;;;13.57;;
19971;SDS011;10147;16.402;102.848;2023-05-10T11:16:22;16.45;;;13.68;;
19971;SDS011;10147;16.402;102.848;2023-05-10T11:18:54;16.95;;;15.35;;
19971;SDS011;10147;16.402;102.848;2023-05-10T11:21:30;22.40;;;20.05;;
19971;SDS011;10147;16.402;102.848;2023-05-10T11:24:01;17.92;;;15.73;;
19971;SDS011;10147;16.402;102.848;2023-05-10T11:26:44;19.67;;;15.77;;
19971;SDS011;10147;16.402;102.848;2023-05-10T11:29:15;16.95;;;15.23;;
19971;SDS011;10147;16.402;102.848;2023-05-10T11:31:46;18.33;;;16.55;;
19971;SDS011;10147;16.402;102.848;2023-05-10T11:34:24;17.63;;;15.82;;
19971;SDS011;10147;16.402;102.848;2023-05-10T11:37:04;18.23;;;16.42;;
19971;SDS011;10147;16.402;102.848;2023-05-10T11:39:34;16.45;;;14.70;;
19971;SDS011;10147;16.402;102.848;2023-05-10T11:42:07;20.25;;;16.83;;
19971;SDS011;10147;16.402;102.848;2023-05-10T11:44:39;18.00;;;16.25;;
19971;SDS011;10147;16.402;102.848;2023-05-10T11:47:09;18.02;;;15.73;;
19971;SDS011;10147;16.402;102.848;2023-05-10T11:49:43;17.05;;;15.15;;
19971;SDS011;10147;16.402;102.848;2023-05-10T11:52:13;18.83;;;16.00;;
19971;SDS011;10147;16.402;102.848;2023-05-10T11:54:53;21.00;;;15.80;;
19971;SDS011;10147;16.402;102.848;2023-05-10T11:57:25;20.38;;;15.82;;
19971;SDS011;10147;16.402;102.848;2023-05-10T11:59:57;18.02;;;16.10;;
19971;SDS011;10147;16.402;102.848;2023-05-10T12:02:28;18.27;;;16.25;;
19971;SDS011;10147;16.402;102.848;2023-05-10T12:04:59;20.08;;;16.88;;
19971;SDS011;10147;16.402;102.848;2023-05-10T12:07:30;17.88;;;16.00;;
19971;SDS011;10147;16.402;102.848;2023-05-10T12:10:04;17.55;;;15.77;;
19971;SDS011;10147;16.402;102.848;2023-05-10T12:12:40;17.42;;;15.57;;
19971;SDS011;10147;16.402;102.848;2023-05-10T12:15:12;18.35;;;16.42;;
19971;SDS011;10147;16.402;102.848;2023-05-10T12:17:53;18.05;;;14.88;;
19971;SDS011;10147;16.402;102.848;2023-05-10T12:20:23;24.08;;;14.88;;
19971;SDS011;10147;16.402;102.848;2023-05-10T12:22:56;19.02;;;16.35;;
19971;SDS011;10147;16.402;102.848;2023-05-10T12:25:30;20.65;;;16.10;;
19971;SDS011;10147;16.402;102.848;2023-05-10T12:28:03;19.40;;;16.17;;
19971;SDS011;10147;16.402;102.848;2023-05-10T12:30:35;20.45;;;17.08;;
19971;SDS011;10147;16.402;102.848;2023-05-10T12:33:09;22.20;;;16.23;;
19971;SDS011;10147;16.402;102.848;2023-05-10T12:35:44;19.88;;;17.75;;
19971;SDS011;10147;16.402;102.848;2023-05-10T12:41:14;21.42;;;18.45;;
19971;SDS011;10147;16.402;102.848;2023-05-10T12:43:45;20.77;;;18.65;;
19971;SDS011;10147;16.402;102.848;2023-05-10T12:46:16;21.17;;;16.77;;
19971;SDS011;10147;16.402;102.848;2023-05-10T12:48:47;19.98;;;16.17;;
19971;SDS011;10147;16.402;102.848;2023-05-10T12:51:35;19.77;;;15.25;;
19971;SDS011;10147;16.402;102.848;2023-05-10T12:54:05;17.48;;;14.20;;
19971;SDS011;10147;16.402;102.848;2023-05-10T12:56:35;15.48;;;13.98;;
19971;SDS011;10147;16.402;102.848;2023-05-10T12:59:05;17.20;;;14.05;;
19971;SDS011;10147;16.402;102.848;2023-05-10T13:01:35;18.40;;;15.80;;
19971;SDS011;10147;16.402;102.848;2023-05-10T13:04:05;16.63;;;14.90;;
19971;SDS011;10147;16.402;102.848;2023-05-10T13:06:35;16.35;;;14.65;;
19971;SDS011;10147;16.402;102.848;2023-05-10T13:09:08;16.15;;;14.52;;
19971;SDS011;10147;16.402;102.848;2023-05-10T13:11:37;15.80;;;14.40;;
19971;SDS011;10147;16.402;102.848;2023-05-10T13:14:07;16.23;;;14.60;;
19971;SDS011;10147;16.402;102.848;2023-05-10T13:16:37;16.15;;;14.25;;
19971;SDS011;10147;16.402;102.848;2023-05-10T13:19:10;18.58;;;14.77;;
19971;SDS011;10147;16.402;102.848;2023-05-10T13:21:43;14.98;;;13.40;;
19971;SDS011;10147;16.402;102.848;2023-05-10T13:24:13;17.02;;;13.27;;
19971;SDS011;10147;16.402;102.848;2023-05-10T13:26:43;13.85;;;12.60;;
19971;SDS011;10147;16.402;102.848;2023-05-10T13:29:14;13.70;;;12.30;;
19971;SDS011;10147;16.402;102.848;2023-05-10T13:31:46;16.55;;;12.90;;
19971;SDS011;10147;16.402;102.848;2023-05-10T13:34:16;18.38;;;13.45;;
19971;SDS011;10147;16.402;102.848;2023-05-10T13:36:49;16.33;;;12.82;;
19971;SDS011;10147;16.402;102.848;2023-05-10T13:39:19;19.08;;;12.65;;
19971;SDS011;10147;16.402;102.848;2023-05-10T13:41:49;13.65;;;12.32;;
19971;SDS011;10147;16.402;102.848;2023-05-10T13:44:21;14.73;;;11.82;;
19971;SDS011;10147;16.402;102.848;2023-05-10T13:46:51;13.15;;;11.75;;
19971;SDS011;10147;16.402;102.848;2023-05-10T13:49:21;12.77;;;11.48;;
19971;SDS011;10147;16.402;102.848;2023-05-10T13:51:51;12.90;;;11.73;;
19971;SDS011;10147;16.402;102.848;2023-05-10T13:54:23;14.77;;;12.30;;
19971;SDS011;10147;16.402;102.848;2023-05-10T13:56:53;13.05;;;11.50;;
19971;SDS011;10147;16.402;102.848;2023-05-10T13:59:23;14.43;;;10.85;;
19971;SDS011;10147;16.402;102.848;2023-05-10T14:01:53;10.77;;;9.68;;
19971;SDS011;10147;16.402;102.848;2023-05-10T14:04:23;12.98;;;11.02;;
19971;SDS011;10147;16.402;102.848;2023-05-10T14:06:53;15.05;;;11.68;;
19971;SDS011;10147;16.402;102.848;2023-05-10T14:09:23;12.45;;;11.13;;
19971;SDS011;10147;16.402;102.848;2023-05-10T14:11:53;12.43;;;11.25;;
19971;SDS011;10147;16.402;102.848;2023-05-10T14:14:24;17.95;;;15.82;;
19971;SDS011;10147;16.402;102.848;2023-05-10T14:16:54;12.35;;;11.15;;
19971;SDS011;10147;16.402;102.848;2023-05-10T14:19:24;11.98;;;10.77;;
19971;SDS011;10147;16.402;102.848;2023-05-10T14:21:55;12.50;;;11.20;;
19971;SDS011;10147;16.402;102.848;2023-05-10T14:24:25;12.95;;;11.60;;
19971;SDS011;10147;16.402;102.848;2023-05-10T14:26:55;12.68;;;11.38;;
19971;SDS011;10147;16.402;102.848;2023-05-10T14:29:25;12.73;;;11.50;;
19971;SDS011;10147;16.402;102.848;2023-05-10T14:31:55;13.25;;;11.98;;
19971;SDS011;10147;16.402;102.848;2023-05-10T14:34:25;12.73;;;11.43;;
19971;SDS011;10147;16.402;102.848;2023-05-10T14:36:55;13.70;;;12.30;;
19971;SDS011;10147;16.402;102.848;2023-05-10T14:39:25;12.90;;;11.80;;
19971;SDS011;10147;16.402;102.848;2023-05-10T14:41:58;13.82;;;12.60;;
19971;SDS011;10147;16.402;102.848;2023-05-10T14:44:30;14.25;;;13.05;;
19971;SDS011;10147;16.402;102.848;2023-05-10T14:47:00;13.00;;;11.63;;
19971;SDS011;10147;16.402;102.848;2023-05-10T14:49:30;13.40;;;11.85;;
19971;SDS011;10147;16.402;102.848;2023-05-10T14:52:01;13.40;;;12.20;;
19971;SDS011;10147;16.402;102.848;2023-05-10T14:54:31;19.02;;;13.25;;
19971;SDS011;10147;16.402;102.848;2023-05-10T14:57:02;14.35;;;12.98;;